createdAt,value
2023-04-25T00:04:12.678Z,5.62
2023-04-25T00:09:16.587Z,6.30
2023-04-25T00:14:20.336Z,6.22
2023-04-25T00:19:25.756Z,5.37
2023-04-25T00:24:29.493Z,5.80
2023-04-25T00:29:33.196Z,5.55
2023-04-25T00:34:38.294Z,5.95
2023-04-25T00:39:42.187Z,5.12
2023-04-25T00:44:47.164Z,5.40
2023-04-25T00:49:52.304Z,5.45
2023-04-25T00:54:56.562Z,5.05
2023-04-25T01:00:00.976Z,6.80
2023-04-25T01:05:07.213Z,5.78
2023-04-25T01:10:12.446Z,6.10
2023-04-25T01:15:16.358Z,6.32
2023-04-25T01:20:24.369Z,5.55
2023-04-25T01:25:30.053Z,5.40
2023-04-25T01:30:34.494Z,6.30
2023-04-25T01:35:38.268Z,5.35
2023-04-25T01:40:43.462Z,5.82
2023-04-25T01:45:47.251Z,6.22
2023-04-25T01:50:51.281Z,5.22
2023-04-25T01:55:56.466Z,5.30
2023-04-25T02:01:01.373Z,5.65
2023-04-25T02:06:06.406Z,6.25
2023-04-25T02:11:12.662Z,5.43
2023-04-25T02:16:16.799Z,6.60
2023-04-25T02:21:20.615Z,6.20
2023-04-25T02:26:25.873Z,5.35
2023-04-25T02:31:29.624Z,5.53
2023-04-25T02:36:36.601Z,5.62
2023-04-25T02:41:41.647Z,7.10
2023-04-25T02:46:45.401Z,6.28
2023-04-25T02:51:49.095Z,5.82
2023-04-25T02:56:54.300Z,5.37
2023-04-25T03:01:58.102Z,6.45
2023-04-25T03:07:02.081Z,6.32
2023-04-25T03:12:08.504Z,7.53
2023-04-25T03:17:12.564Z,6.45
2023-04-25T03:22:16.342Z,7.10
2023-04-25T03:27:21.420Z,6.72
2023-04-25T03:32:25.263Z,7.35
2023-04-25T03:37:29.152Z,6.55
2023-04-25T03:42:34.361Z,7.68
2023-04-25T03:47:39.059Z,15.73
2023-04-25T03:52:42.972Z,9.70
2023-04-25T03:57:48.367Z,7.75
2023-04-25T04:02:53.740Z,7.37
2023-04-25T04:07:57.647Z,7.18
2023-04-25T04:13:03.131Z,7.35
2023-04-25T04:18:07.287Z,6.65
2023-04-25T04:23:11.671Z,7.85
2023-04-25T04:28:17.068Z,6.90
2023-04-25T04:33:22.266Z,6.00
2023-04-25T04:38:27.348Z,7.03
2023-04-25T04:43:34.347Z,6.37
2023-04-25T04:48:41.148Z,6.05
2023-04-25T04:53:45.998Z,5.70
2023-04-25T04:58:51.559Z,6.00
2023-04-25T05:04:01.177Z,6.35
2023-04-25T05:09:07.076Z,5.35
2023-04-25T05:14:12.840Z,4.90
2023-04-25T05:19:17.603Z,4.32
2023-04-25T05:24:21.405Z,4.78
2023-04-25T05:29:28.887Z,4.40
2023-04-25T05:34:33.246Z,3.75
2023-04-25T05:39:37.795Z,2.53
2023-04-25T05:44:43.253Z,3.47
2023-04-25T05:49:47.849Z,2.72
2023-04-25T05:54:52.338Z,3.30
2023-04-25T05:59:58.281Z,3.20
2023-04-25T06:05:05.160Z,2.78
2023-04-25T06:10:10.647Z,3.53
2023-04-25T06:15:27.997Z,2.50
2023-04-25T06:20:37.871Z,2.70
2023-04-25T06:25:41.680Z,3.20
2023-04-25T06:30:47.440Z,3.37
2023-04-25T06:35:51.448Z,4.07
2023-04-25T06:40:55.708Z,2.90
2023-04-25T06:46:01.074Z,3.00
2023-04-25T06:51:06.560Z,3.05
2023-04-25T06:56:11.638Z,2.80
2023-04-25T07:01:18.408Z,2.85
2023-04-25T07:06:22.362Z,2.97
2023-04-25T07:11:26.411Z,2.33
2023-04-25T07:16:31.730Z,2.60
2023-04-25T07:21:37.423Z,2.25
2023-04-25T07:26:42.204Z,3.15
2023-04-25T07:31:49.509Z,2.85
2023-04-25T07:36:53.594Z,2.25
2023-04-25T07:41:59.393Z,2.55
2023-04-25T07:47:08.086Z,1.52
2023-04-25T07:52:12.079Z,2.28
2023-04-25T07:57:19.549Z,1.58
2023-04-25T08:02:27.253Z,1.62
2023-04-25T08:07:31.089Z,1.90
2023-04-25T08:12:38.087Z,1.98
2023-04-25T08:17:46.581Z,2.30
2023-04-25T08:22:50.655Z,1.95
2023-04-25T08:27:57.570Z,1.83
2023-04-25T08:33:03.807Z,1.65
2023-04-25T08:38:08.993Z,1.95
2023-04-25T08:43:16.156Z,1.60
2023-04-25T08:48:23.459Z,1.48
2023-04-25T08:53:28.855Z,2.00
2023-04-25T08:58:35.378Z,2.20
2023-04-25T09:03:41.143Z,1.83
2023-04-25T09:08:45.082Z,1.90
2023-04-25T09:13:49.384Z,1.77
2023-04-25T09:18:56.037Z,1.60
2023-04-25T09:24:00.613Z,1.90
2023-04-25T09:29:08.884Z,1.40
2023-04-25T09:34:16.684Z,1.40
2023-04-25T09:39:22.489Z,1.42
2023-04-25T09:44:28.082Z,1.35
2023-04-25T09:49:34.034Z,1.30
2023-04-25T09:54:38.606Z,1.67
2023-04-25T09:59:46.831Z,1.42
2023-04-25T10:04:55.757Z,1.20
2023-04-25T10:10:03.332Z,1.77
2023-04-25T10:15:09.799Z,1.27
2023-04-25T10:20:15.438Z,1.67
2023-04-25T10:25:19.538Z,1.10
2023-04-25T10:30:23.248Z,1.62
2023-04-25T10:35:30.231Z,1.52
2023-04-25T10:40:34.369Z,1.37
2023-04-25T10:45:53.999Z,1.37
2023-04-25T10:51:10.843Z,1.50
2023-04-25T10:56:19.966Z,1.48
2023-04-25T11:01:27.063Z,0.93
2023-04-25T11:06:48.773Z,1.52
2023-04-25T11:11:56.923Z,1.48
2023-04-25T11:17:01.967Z,2.25
2023-04-25T11:22:08.003Z,1.30
2023-04-25T11:27:11.786Z,1.85
2023-04-25T11:32:16.570Z,1.30
2023-04-25T11:37:22.095Z,2.12
2023-04-25T11:42:25.906Z,1.60
2023-04-25T11:47:32.287Z,1.48
2023-04-25T11:52:41.598Z,1.65
2023-04-25T11:57:47.904Z,1.00
2023-04-25T12:02:54.840Z,1.33
2023-04-25T12:08:00.123Z,0.80
2023-04-25T12:13:20.515Z,0.93
2023-04-25T12:18:28.508Z,1.20
2023-04-25T12:23:33.644Z,1.87
2023-04-25T12:28:37.388Z,1.20
2023-04-25T12:33:42.289Z,1.90
2023-04-25T12:38:47.382Z,1.35
2023-04-25T12:43:51.275Z,1.45
2023-04-25T12:48:58.740Z,1.30
2023-04-25T12:54:09.350Z,0.95
2023-04-25T12:59:13.225Z,1.10
2023-04-25T13:04:17.525Z,1.83
2023-04-25T13:09:22.825Z,1.50
2023-04-25T13:14:26.539Z,1.20
2023-04-25T13:19:30.280Z,1.30
2023-04-25T13:24:35.593Z,0.93
2023-04-25T13:29:41.303Z,1.45
2023-04-25T13:34:45.012Z,1.55
2023-04-25T13:39:50.110Z,1.67
2023-04-25T13:44:53.783Z,1.75
2023-04-25T13:49:57.496Z,1.70
2023-04-25T13:55:04.433Z,1.52
2023-04-25T14:00:10.951Z,1.02
2023-04-25T14:05:14.797Z,1.52
2023-04-25T14:10:20.062Z,1.30
2023-04-25T14:15:24.199Z,1.60
2023-04-25T14:20:28.160Z,1.25
2023-04-25T14:25:33.379Z,1.42
2023-04-25T14:30:37.113Z,1.12
2023-04-25T14:35:40.997Z,1.02
2023-04-25T14:40:46.060Z,0.82
2023-04-25T14:45:49.969Z,1.15
2023-04-25T14:50:53.671Z,1.62
2023-04-25T14:55:58.764Z,1.42
2023-04-25T15:01:02.835Z,0.93
2023-04-25T15:06:07.728Z,1.17
2023-04-25T15:11:13.060Z,1.37
2023-04-25T15:16:16.902Z,1.50
2023-04-25T15:21:20.850Z,1.65
2023-04-25T15:26:25.985Z,1.48
2023-04-25T15:31:29.947Z,1.52
2023-04-25T15:36:34.086Z,1.52
2023-04-25T15:41:39.353Z,1.55
2023-04-25T15:46:44.391Z,1.37
2023-04-25T15:51:48.289Z,1.50
2023-04-25T15:56:53.726Z,1.33
2023-04-25T16:01:58.019Z,1.37
2023-04-25T16:07:01.826Z,1.30
2023-04-25T16:12:08.206Z,1.40
2023-04-25T16:17:11.930Z,1.17
2023-04-25T16:22:16.602Z,1.30
2023-04-25T16:27:22.165Z,1.35
2023-04-25T16:32:25.936Z,0.90
2023-04-25T16:37:29.824Z,1.33
2023-04-25T16:42:34.907Z,1.15
2023-04-25T16:47:38.661Z,1.02
2023-04-25T16:52:44.305Z,1.30
2023-04-25T16:57:49.947Z,0.90
2023-04-25T17:02:53.816Z,1.48
2023-04-25T17:07:57.844Z,1.20
2023-04-25T17:13:02.972Z,1.05
2023-04-25T17:18:07.062Z,1.60
2023-04-25T17:23:11.131Z,1.45
2023-04-25T17:28:16.188Z,2.12
2023-04-25T17:33:19.885Z,2.08
2023-04-25T17:38:23.664Z,1.65
2023-04-25T17:43:28.802Z,1.17
2023-04-25T17:48:32.501Z,1.40
2023-04-25T17:53:36.538Z,1.50
2023-04-25T17:58:41.584Z,1.87
2023-04-25T18:03:47.019Z,1.30
2023-04-25T18:08:51.362Z,1.98
2023-04-25T18:13:56.962Z,1.08
2023-04-25T18:19:05.347Z,1.45
2023-04-25T18:29:29.094Z,1.50
2023-04-25T18:34:36.497Z,1.40
2023-04-25T18:39:40.684Z,1.37
2023-04-25T18:44:46.442Z,1.70
2023-04-25T18:49:50.821Z,1.90
2023-04-25T18:54:54.641Z,1.30
2023-04-25T19:00:04.678Z,1.60
2023-04-25T19:05:10.105Z,2.08
2023-04-25T19:10:13.829Z,2.65
2023-04-25T19:15:19.209Z,1.85
2023-04-25T19:20:22.930Z,2.35
2023-04-25T19:25:27.010Z,1.92
2023-04-25T19:30:32.948Z,2.12
2023-04-25T19:35:36.790Z,1.80
2023-04-25T19:40:40.450Z,1.75
2023-04-25T19:45:45.881Z,2.50
2023-04-25T19:50:49.648Z,1.90
2023-04-25T19:55:53.466Z,2.33
2023-04-25T20:00:58.578Z,2.78
2023-04-25T20:06:02.633Z,2.58
2023-04-25T20:11:06.843Z,2.03
2023-04-25T20:16:12.245Z,2.42
2023-04-25T20:21:17.423Z,2.60
2023-04-25T20:26:22.780Z,3.00
2023-04-25T20:31:28.260Z,2.53
2023-04-25T20:36:32.447Z,2.87
2023-04-25T20:41:37.573Z,3.40
2023-04-25T20:46:42.784Z,2.90
2023-04-25T20:51:46.492Z,2.95
2023-04-25T20:56:50.467Z,4.10
2023-04-25T21:01:55.756Z,3.03
2023-04-25T21:07:00.234Z,3.15
2023-04-25T21:12:03.997Z,3.85
2023-04-25T21:17:09.135Z,3.90
2023-04-25T21:22:13.009Z,2.87
2023-04-25T21:27:17.378Z,3.60
2023-04-25T21:32:22.451Z,3.10
2023-04-25T21:37:26.160Z,3.87
2023-04-25T21:42:29.857Z,4.80
2023-04-25T21:47:35.290Z,3.80
2023-04-25T21:52:39.183Z,3.72
2023-04-25T21:57:42.930Z,4.43
2023-04-25T22:02:48.235Z,4.87
2023-04-25T22:07:53.491Z,4.50
2023-04-25T22:12:57.220Z,4.55
2023-04-25T22:18:04.347Z,4.95
2023-04-25T22:23:08.171Z,4.20
2023-04-25T22:28:12.682Z,4.20
2023-04-25T22:33:17.767Z,3.85
2023-04-25T22:38:21.527Z,5.15
2023-04-25T22:43:26.114Z,4.78
2023-04-25T22:48:31.312Z,4.35
2023-04-25T22:53:37.385Z,3.58
2023-04-25T22:58:41.412Z,4.43
2023-04-25T23:03:46.617Z,4.05
2023-04-25T23:08:51.116Z,4.07
2023-04-25T23:13:55.087Z,4.70
2023-04-25T23:19:00.753Z,4.22
2023-04-25T23:24:05.082Z,3.97
2023-04-25T23:29:08.797Z,4.18
2023-04-25T23:34:13.816Z,4.78
2023-04-25T23:39:18.885Z,4.43
2023-04-25T23:44:22.690Z,4.53
2023-04-25T23:49:27.967Z,5.00
2023-04-25T23:54:31.755Z,5.12
2023-04-25T23:59:35.463Z,5.12
